Terminal Aerodrome Forecast
Issued by NWS Wichita, KS

Home | Current Version | Previous Version | Text Only | Print | Product List | Glossary On
Versions: 1 2 3 4 5 6 7 8 9 10 11 12 13 14 15
000
FTUS43 KICT 250659 AAB
TAFICT
TAF AMD
KICT 250659Z 2507/2606 15009KT P6SM VCSH SCT040 OVC120
      WS015/18050KT
     FM251100 15009KT P6SM OVC200
     FM251400 18013KT P6SM OVC200
     FM252300 33013KT P6SM VCTS SCT035CB BKN080
     FM260000 36015G22KT P6SM VCTS OVC020CB=

USA.gov is the U.S. government's official web portal to all federal, state and local government web resources and services.